sensor_id;sensor_type;location;lat;lon;timestamp;P1;durP1;ratioP1;P2;durP2;ratioP2
59824;SDS011;45703;50.898;6.054;2023-03-01T00:00:53;10.85;;;6.43;;
59824;SDS011;45703;50.898;6.054;2023-03-01T00:03:19;9.63;;;5.57;;
59824;SDS011;45703;50.898;6.054;2023-03-01T00:05:45;11.73;;;6.70;;
59824;SDS011;45703;50.898;6.054;2023-03-01T00:08:11;13.10;;;6.70;;
59824;SDS011;45703;50.898;6.054;2023-03-01T00:10:37;11.35;;;6.05;;
59824;SDS011;45703;50.898;6.054;2023-03-01T00:13:02;13.82;;;6.90;;
59824;SDS011;45703;50.898;6.054;2023-03-01T00:15:30;12.30;;;6.55;;
59824;SDS011;45703;50.898;6.054;2023-03-01T00:17:56;12.20;;;7.00;;
59824;SDS011;45703;50.898;6.054;2023-03-01T00:20:22;11.85;;;6.10;;
59824;SDS011;45703;50.898;6.054;2023-03-01T00:22:47;11.57;;;7.00;;
59824;SDS011;45703;50.898;6.054;2023-03-01T00:25:12;12.73;;;6.82;;
59824;SDS011;45703;50.898;6.054;2023-03-01T00:27:38;12.02;;;6.75;;
59824;SDS011;45703;50.898;6.054;2023-03-01T00:30:03;12.38;;;7.68;;
59824;SDS011;45703;50.898;6.054;2023-03-01T00:32:30;12.88;;;7.13;;
59824;SDS011;45703;50.898;6.054;2023-03-01T00:34:55;12.40;;;6.72;;
59824;SDS011;45703;50.898;6.054;2023-03-01T00:37:21;12.88;;;6.80;;
59824;SDS011;45703;50.898;6.054;2023-03-01T00:39:47;11.55;;;6.78;;
59824;SDS011;45703;50.898;6.054;2023-03-01T00:42:13;12.27;;;6.55;;
59824;SDS011;45703;50.898;6.054;2023-03-01T00:44:39;12.20;;;7.13;;
59824;SDS011;45703;50.898;6.054;2023-03-01T00:47:04;11.55;;;5.75;;
59824;SDS011;45703;50.898;6.054;2023-03-01T00:49:30;10.77;;;6.15;;
59824;SDS011;45703;50.898;6.054;2023-03-01T00:51:55;11.20;;;6.85;;
59824;SDS011;45703;50.898;6.054;2023-03-01T00:54:20;11.32;;;6.78;;
59824;SDS011;45703;50.898;6.054;2023-03-01T00:56:46;10.80;;;5.85;;
59824;SDS011;45703;50.898;6.054;2023-03-01T00:59:11;11.68;;;6.40;;
59824;SDS011;45703;50.898;6.054;2023-03-01T01:01:36;11.88;;;6.78;;
59824;SDS011;45703;50.898;6.054;2023-03-01T01:04:04;13.88;;;7.20;;
59824;SDS011;45703;50.898;6.054;2023-03-01T01:06:39;11.80;;;6.57;;
59824;SDS011;45703;50.898;6.054;2023-03-01T01:09:10;12.57;;;6.53;;
59824;SDS011;45703;50.898;6.054;2023-03-01T01:11:48;14.48;;;7.35;;
59824;SDS011;45703;50.898;6.054;2023-03-01T01:16:41;13.50;;;6.55;;
59824;SDS011;45703;50.898;6.054;2023-03-01T01:19:06;11.85;;;6.93;;
59824;SDS011;45703;50.898;6.054;2023-03-01T01:21:32;11.93;;;6.82;;
59824;SDS011;45703;50.898;6.054;2023-03-01T01:23:57;11.88;;;6.57;;
59824;SDS011;45703;50.898;6.054;2023-03-01T01:26:24;11.93;;;7.20;;
59824;SDS011;45703;50.898;6.054;2023-03-01T01:28:51;12.02;;;6.72;;
59824;SDS011;45703;50.898;6.054;2023-03-01T01:31:18;14.15;;;7.57;;
59824;SDS011;45703;50.898;6.054;2023-03-01T01:33:44;12.50;;;6.75;;
59824;SDS011;45703;50.898;6.054;2023-03-01T01:36:10;10.98;;;6.40;;
59824;SDS011;45703;50.898;6.054;2023-03-01T01:38:37;13.25;;;7.35;;
59824;SDS011;45703;50.898;6.054;2023-03-01T01:41:03;11.25;;;6.75;;
59824;SDS011;45703;50.898;6.054;2023-03-01T01:43:31;11.43;;;6.82;;
59824;SDS011;45703;50.898;6.054;2023-03-01T01:45:59;12.30;;;7.00;;
59824;SDS011;45703;50.898;6.054;2023-03-01T01:48:32;11.65;;;6.88;;
59824;SDS011;45703;50.898;6.054;2023-03-01T01:51:05;12.68;;;7.80;;
59824;SDS011;45703;50.898;6.054;2023-03-01T01:53:34;11.88;;;6.68;;
59824;SDS011;45703;50.898;6.054;2023-03-01T01:56:01;13.15;;;6.38;;
59824;SDS011;45703;50.898;6.054;2023-03-01T01:58:28;13.05;;;7.20;;
59824;SDS011;45703;50.898;6.054;2023-03-01T02:00:55;11.98;;;7.00;;
59824;SDS011;45703;50.898;6.054;2023-03-01T02:03:28;12.32;;;6.65;;
59824;SDS011;45703;50.898;6.054;2023-03-01T02:06:12;11.90;;;6.93;;
59824;SDS011;45703;50.898;6.054;2023-03-01T02:08:42;11.90;;;6.85;;
59824;SDS011;45703;50.898;6.054;2023-03-01T02:11:09;13.32;;;7.25;;
59824;SDS011;45703;50.898;6.054;2023-03-01T02:13:35;13.80;;;7.45;;
59824;SDS011;45703;50.898;6.054;2023-03-01T02:16:19;11.77;;;6.82;;
59824;SDS011;45703;50.898;6.054;2023-03-01T02:18:45;12.75;;;6.65;;
59824;SDS011;45703;50.898;6.054;2023-03-01T02:23:59;12.90;;;6.70;;
59824;SDS011;45703;50.898;6.054;2023-03-01T02:26:51;13.00;;;7.32;;
59824;SDS011;45703;50.898;6.054;2023-03-01T02:29:20;11.57;;;6.63;;
59824;SDS011;45703;50.898;6.054;2023-03-01T02:31:46;11.68;;;7.03;;
59824;SDS011;45703;50.898;6.054;2023-03-01T02:34:13;12.00;;;6.50;;
59824;SDS011;45703;50.898;6.054;2023-03-01T02:36:42;13.38;;;7.00;;
59824;SDS011;45703;50.898;6.054;2023-03-01T02:39:13;15.50;;;8.05;;
59824;SDS011;45703;50.898;6.054;2023-03-01T02:41:42;12.27;;;7.75;;
59824;SDS011;45703;50.898;6.054;2023-03-01T02:44:11;12.77;;;7.50;;
59824;SDS011;45703;50.898;6.054;2023-03-01T02:46:47;14.82;;;7.70;;
59824;SDS011;45703;50.898;6.054;2023-03-01T02:49:28;11.98;;;7.10;;
59824;SDS011;45703;50.898;6.054;2023-03-01T02:52:01;13.00;;;7.65;;
59824;SDS011;45703;50.898;6.054;2023-03-01T02:57:32;12.88;;;7.55;;
59824;SDS011;45703;50.898;6.054;2023-03-01T03:00:03;15.35;;;8.85;;
59824;SDS011;45703;50.898;6.054;2023-03-01T03:02:34;13.30;;;7.20;;
59824;SDS011;45703;50.898;6.054;2023-03-01T03:07:31;11.05;;;6.88;;
59824;SDS011;45703;50.898;6.054;2023-03-01T03:09:59;11.68;;;7.50;;
59824;SDS011;45703;50.898;6.054;2023-03-01T03:12:24;13.63;;;8.18;;
59824;SDS011;45703;50.898;6.054;2023-03-01T03:14:50;13.80;;;7.20;;
59824;SDS011;45703;50.898;6.054;2023-03-01T03:17:15;13.50;;;7.93;;
59824;SDS011;45703;50.898;6.054;2023-03-01T03:19:40;11.93;;;7.13;;
59824;SDS011;45703;50.898;6.054;2023-03-01T03:22:06;12.43;;;7.68;;
59824;SDS011;45703;50.898;6.054;2023-03-01T03:24:33;13.85;;;7.60;;
59824;SDS011;45703;50.898;6.054;2023-03-01T03:27:03;14.23;;;7.57;;
59824;SDS011;45703;50.898;6.054;2023-03-01T03:29:32;12.90;;;7.68;;
59824;SDS011;45703;50.898;6.054;2023-03-01T03:31:58;13.95;;;8.13;;
59824;SDS011;45703;50.898;6.054;2023-03-01T03:34:23;14.82;;;8.25;;
59824;SDS011;45703;50.898;6.054;2023-03-01T03:36:52;14.73;;;7.97;;
59824;SDS011;45703;50.898;6.054;2023-03-01T03:39:27;12.55;;;7.40;;
59824;SDS011;45703;50.898;6.054;2023-03-01T03:41:54;12.10;;;7.20;;
59824;SDS011;45703;50.898;6.054;2023-03-01T03:44:20;12.27;;;7.45;;
59824;SDS011;45703;50.898;6.054;2023-03-01T03:46:46;12.82;;;7.25;;
59824;SDS011;45703;50.898;6.054;2023-03-01T03:49:11;12.30;;;7.13;;
59824;SDS011;45703;50.898;6.054;2023-03-01T03:51:37;13.20;;;7.35;;
59824;SDS011;45703;50.898;6.054;2023-03-01T03:54:02;15.45;;;7.95;;
59824;SDS011;45703;50.898;6.054;2023-03-01T03:56:28;14.93;;;8.55;;
59824;SDS011;45703;50.898;6.054;2023-03-01T03:58:53;13.35;;;8.05;;
59824;SDS011;45703;50.898;6.054;2023-03-01T04:01:19;15.40;;;8.15;;
59824;SDS011;45703;50.898;6.054;2023-03-01T04:03:45;12.25;;;8.38;;
59824;SDS011;45703;50.898;6.054;2023-03-01T04:06:12;13.73;;;7.88;;
59824;SDS011;45703;50.898;6.054;2023-03-01T04:08:38;12.50;;;7.57;;
59824;SDS011;45703;50.898;6.054;2023-03-01T04:11:04;15.65;;;8.20;;
59824;SDS011;45703;50.898;6.054;2023-03-01T04:13:48;13.50;;;7.65;;
59824;SDS011;45703;50.898;6.054;2023-03-01T04:16:14;13.52;;;8.35;;
59824;SDS011;45703;50.898;6.054;2023-03-01T04:18:40;13.82;;;8.73;;
59824;SDS011;45703;50.898;6.054;2023-03-01T04:21:05;16.15;;;8.35;;
59824;SDS011;45703;50.898;6.054;2023-03-01T04:23:31;14.45;;;8.85;;
59824;SDS011;45703;50.898;6.054;2023-03-01T04:25:57;15.95;;;8.65;;
59824;SDS011;45703;50.898;6.054;2023-03-01T04:31:01;14.65;;;9.15;;
59824;SDS011;45703;50.898;6.054;2023-03-01T04:33:37;15.05;;;8.70;;
59824;SDS011;45703;50.898;6.054;2023-03-01T04:36:07;14.68;;;8.30;;
59824;SDS011;45703;50.898;6.054;2023-03-01T04:38:34;16.38;;;8.38;;
59824;SDS011;45703;50.898;6.054;2023-03-01T04:41:02;13.38;;;8.50;;
59824;SDS011;45703;50.898;6.054;2023-03-01T04:43:28;13.63;;;8.48;;
59824;SDS011;45703;50.898;6.054;2023-03-01T04:45:54;13.82;;;9.30;;
59824;SDS011;45703;50.898;6.054;2023-03-01T04:48:19;13.75;;;9.00;;
59824;SDS011;45703;50.898;6.054;2023-03-01T04:50:44;13.82;;;8.00;;
59824;SDS011;45703;50.898;6.054;2023-03-01T04:53:10;13.13;;;8.18;;
59824;SDS011;45703;50.898;6.054;2023-03-01T04:55:35;14.50;;;8.20;;
59824;SDS011;45703;50.898;6.054;2023-03-01T04:58:00;13.43;;;8.35;;
59824;SDS011;45703;50.898;6.054;2023-03-01T05:00:26;14.23;;;8.60;;
59824;SDS011;45703;50.898;6.054;2023-03-01T05:02:53;15.10;;;8.43;;
59824;SDS011;45703;50.898;6.054;2023-03-01T05:05:24;13.70;;;8.23;;
59824;SDS011;45703;50.898;6.054;2023-03-01T05:07:53;13.50;;;8.30;;
59824;SDS011;45703;50.898;6.054;2023-03-01T05:10:23;16.42;;;8.63;;
59824;SDS011;45703;50.898;6.054;2023-03-01T05:12:49;13.80;;;8.23;;
59824;SDS011;45703;50.898;6.054;2023-03-01T05:15:17;13.18;;;7.68;;
59824;SDS011;45703;50.898;6.054;2023-03-01T05:17:43;13.00;;;8.40;;
59824;SDS011;45703;50.898;6.054;2023-03-01T05:20:09;14.52;;;8.65;;
59824;SDS011;45703;50.898;6.054;2023-03-01T05:22:35;13.25;;;7.80;;
59824;SDS011;45703;50.898;6.054;2023-03-01T05:25:02;13.82;;;8.10;;
59824;SDS011;45703;50.898;6.054;2023-03-01T05:27:28;16.83;;;9.20;;
59824;SDS011;45703;50.898;6.054;2023-03-01T05:29:54;15.07;;;8.68;;
59824;SDS011;45703;50.898;6.054;2023-03-01T05:32:20;15.85;;;9.07;;
59824;SDS011;45703;50.898;6.054;2023-03-01T05:34:45;14.45;;;8.23;;
59824;SDS011;45703;50.898;6.054;2023-03-01T05:37:11;14.20;;;8.73;;
59824;SDS011;45703;50.898;6.054;2023-03-01T05:39:37;14.15;;;8.45;;
59824;SDS011;45703;50.898;6.054;2023-03-01T05:42:02;14.80;;;8.75;;
59824;SDS011;45703;50.898;6.054;2023-03-01T05:44:28;14.20;;;8.93;;
59824;SDS011;45703;50.898;6.054;2023-03-01T05:46:54;15.40;;;9.23;;
59824;SDS011;45703;50.898;6.054;2023-03-01T05:49:20;14.00;;;7.53;;
59824;SDS011;45703;50.898;6.054;2023-03-01T05:51:50;14.57;;;8.65;;
59824;SDS011;45703;50.898;6.054;2023-03-01T05:54:16;15.57;;;8.50;;
59824;SDS011;45703;50.898;6.054;2023-03-01T05:56:42;16.48;;;9.45;;
59824;SDS011;45703;50.898;6.054;2023-03-01T05:59:08;15.75;;;9.70;;
59824;SDS011;45703;50.898;6.054;2023-03-01T06:01:34;14.65;;;8.38;;
59824;SDS011;45703;50.898;6.054;2023-03-01T06:04:01;16.13;;;8.65;;
59824;SDS011;45703;50.898;6.054;2023-03-01T06:06:26;15.43;;;9.02;;
59824;SDS011;45703;50.898;6.054;2023-03-01T06:08:52;15.93;;;8.75;;
59824;SDS011;45703;50.898;6.054;2023-03-01T06:11:18;15.48;;;8.93;;
59824;SDS011;45703;50.898;6.054;2023-03-01T06:13:45;13.70;;;8.40;;
59824;SDS011;45703;50.898;6.054;2023-03-01T06:16:11;15.38;;;8.70;;
59824;SDS011;45703;50.898;6.054;2023-03-01T06:18:37;16.40;;;9.45;;
59824;SDS011;45703;50.898;6.054;2023-03-01T06:21:03;13.75;;;8.85;;
59824;SDS011;45703;50.898;6.054;2023-03-01T06:23:29;14.45;;;8.70;;
59824;SDS011;45703;50.898;6.054;2023-03-01T06:25:55;14.13;;;8.88;;
59824;SDS011;45703;50.898;6.054;2023-03-01T06:28:20;15.30;;;8.50;;
59824;SDS011;45703;50.898;6.054;2023-03-01T06:30:46;14.02;;;8.40;;
59824;SDS011;45703;50.898;6.054;2023-03-01T06:33:11;13.73;;;8.50;;
59824;SDS011;45703;50.898;6.054;2023-03-01T06:35:36;14.95;;;9.20;;
59824;SDS011;45703;50.898;6.054;2023-03-01T06:38:02;13.18;;;8.57;;
59824;SDS011;45703;50.898;6.054;2023-03-01T06:40:29;14.60;;;9.00;;
59824;SDS011;45703;50.898;6.054;2023-03-01T06:42:56;17.02;;;9.23;;
59824;SDS011;45703;50.898;6.054;2023-03-01T06:45:22;14.93;;;8.90;;
59824;SDS011;45703;50.898;6.054;2023-03-01T06:47:47;13.68;;;8.90;;
59824;SDS011;45703;50.898;6.054;2023-03-01T06:50:13;17.35;;;9.63;;
59824;SDS011;45703;50.898;6.054;2023-03-01T06:52:39;15.77;;;9.60;;
59824;SDS011;45703;50.898;6.054;2023-03-01T06:55:04;15.73;;;8.68;;
59824;SDS011;45703;50.898;6.054;2023-03-01T06:57:30;14.88;;;9.38;;
59824;SDS011;45703;50.898;6.054;2023-03-01T06:59:56;14.57;;;9.18;;
59824;SDS011;45703;50.898;6.054;2023-03-01T07:02:21;16.52;;;9.27;;
59824;SDS011;45703;50.898;6.054;2023-03-01T07:04:48;15.93;;;9.05;;
59824;SDS011;45703;50.898;6.054;2023-03-01T07:07:17;14.65;;;8.85;;
59824;SDS011;45703;50.898;6.054;2023-03-01T07:09:46;14.15;;;8.13;;
59824;SDS011;45703;50.898;6.054;2023-03-01T07:12:14;15.30;;;9.07;;
59824;SDS011;45703;50.898;6.054;2023-03-01T07:14:39;15.27;;;8.88;;
59824;SDS011;45703;50.898;6.054;2023-03-01T07:17:05;13.23;;;8.77;;
59824;SDS011;45703;50.898;6.054;2023-03-01T07:19:30;14.30;;;9.38;;
59824;SDS011;45703;50.898;6.054;2023-03-01T07:21:56;15.55;;;9.20;;
59824;SDS011;45703;50.898;6.054;2023-03-01T07:24:21;16.10;;;9.13;;
59824;SDS011;45703;50.898;6.054;2023-03-01T07:26:51;18.38;;;9.80;;
59824;SDS011;45703;50.898;6.054;2023-03-01T07:29:17;17.40;;;9.52;;
59824;SDS011;45703;50.898;6.054;2023-03-01T07:31:43;15.23;;;9.10;;
59824;SDS011;45703;50.898;6.054;2023-03-01T07:34:09;15.82;;;9.50;;
59824;SDS011;45703;50.898;6.054;2023-03-01T07:36:35;15.52;;;8.90;;
59824;SDS011;45703;50.898;6.054;2023-03-01T07:39:01;14.68;;;8.88;;
59824;SDS011;45703;50.898;6.054;2023-03-01T07:41:28;15.23;;;9.40;;
59824;SDS011;45703;50.898;6.054;2023-03-01T07:43:54;16.27;;;10.27;;
59824;SDS011;45703;50.898;6.054;2023-03-01T07:46:19;16.73;;;9.52;;
59824;SDS011;45703;50.898;6.054;2023-03-01T07:48:45;15.88;;;9.90;;
59824;SDS011;45703;50.898;6.054;2023-03-01T07:51:10;18.33;;;9.90;;
59824;SDS011;45703;50.898;6.054;2023-03-01T07:53:36;14.57;;;9.15;;
59824;SDS011;45703;50.898;6.054;2023-03-01T07:58:30;15.48;;;9.95;;
59824;SDS011;45703;50.898;6.054;2023-03-01T08:00:55;16.42;;;9.63;;
59824;SDS011;45703;50.898;6.054;2023-03-01T08:03:21;15.90;;;9.38;;
59824;SDS011;45703;50.898;6.054;2023-03-01T08:05:46;16.48;;;9.65;;
59824;SDS011;45703;50.898;6.054;2023-03-01T08:08:11;18.95;;;9.13;;
59824;SDS011;45703;50.898;6.054;2023-03-01T08:10:37;16.52;;;10.10;;
59824;SDS011;45703;50.898;6.054;2023-03-01T08:13:02;16.83;;;10.15;;
59824;SDS011;45703;50.898;6.054;2023-03-01T08:15:28;17.23;;;9.57;;
59824;SDS011;45703;50.898;6.054;2023-03-01T08:17:53;20.25;;;10.98;;
59824;SDS011;45703;50.898;6.054;2023-03-01T08:20:18;19.77;;;11.23;;
59824;SDS011;45703;50.898;6.054;2023-03-01T08:22:44;15.77;;;9.77;;
59824;SDS011;45703;50.898;6.054;2023-03-01T08:25:09;20.52;;;11.27;;
59824;SDS011;45703;50.898;6.054;2023-03-01T08:27:34;19.48;;;10.45;;
59824;SDS011;45703;50.898;6.054;2023-03-01T08:30:00;17.25;;;9.90;;
59824;SDS011;45703;50.898;6.054;2023-03-01T08:32:25;16.58;;;10.07;;
59824;SDS011;45703;50.898;6.054;2023-03-01T08:34:51;18.50;;;11.30;;
59824;SDS011;45703;50.898;6.054;2023-03-01T08:37:16;17.90;;;10.30;;
59824;SDS011;45703;50.898;6.054;2023-03-01T08:39:41;19.02;;;10.65;;
59824;SDS011;45703;50.898;6.054;2023-03-01T08:42:07;17.98;;;10.30;;
59824;SDS011;45703;50.898;6.054;2023-03-01T08:44:32;18.08;;;10.50;;
59824;SDS011;45703;50.898;6.054;2023-03-01T08:46:58;16.42;;;10.23;;
59824;SDS011;45703;50.898;6.054;2023-03-01T08:49:24;17.42;;;10.65;;
59824;SDS011;45703;50.898;6.054;2023-03-01T08:51:50;17.65;;;9.98;;
59824;SDS011;45703;50.898;6.054;2023-03-01T08:54:17;16.45;;;9.60;;
59824;SDS011;45703;50.898;6.054;2023-03-01T08:56:44;17.13;;;10.52;;
59824;SDS011;45703;50.898;6.054;2023-03-01T08:59:10;16.48;;;9.75;;
59824;SDS011;45703;50.898;6.054;2023-03-01T09:01:37;16.90;;;10.40;;
59824;SDS011;45703;50.898;6.054;2023-03-01T09:04:02;17.70;;;9.98;;
59824;SDS011;45703;50.898;6.054;2023-03-01T09:06:32;19.73;;;10.95;;
59824;SDS011;45703;50.898;6.054;2023-03-01T09:08:59;18.55;;;10.57;;
59824;SDS011;45703;50.898;6.054;2023-03-01T09:11:25;19.70;;;10.93;;
59824;SDS011;45703;50.898;6.054;2023-03-01T09:13:50;19.20;;;10.73;;
59824;SDS011;45703;50.898;6.054;2023-03-01T09:16:17;18.38;;;10.60;;
59824;SDS011;45703;50.898;6.054;2023-03-01T09:18:48;18.05;;;10.57;;
59824;SDS011;45703;50.898;6.054;2023-03-01T09:23:42;18.08;;;9.68;;
59824;SDS011;45703;50.898;6.054;2023-03-01T09:26:10;19.45;;;11.05;;
59824;SDS011;45703;50.898;6.054;2023-03-01T09:28:37;18.35;;;11.32;;
59824;SDS011;45703;50.898;6.054;2023-03-01T09:31:04;20.85;;;10.90;;
59824;SDS011;45703;50.898;6.054;2023-03-01T09:33:30;18.83;;;10.02;;
59824;SDS011;45703;50.898;6.054;2023-03-01T09:36:01;20.08;;;10.93;;
59824;SDS011;45703;50.898;6.054;2023-03-01T09:38:32;19.88;;;11.35;;
59824;SDS011;45703;50.898;6.054;2023-03-01T09:40:58;19.48;;;10.93;;
59824;SDS011;45703;50.898;6.054;2023-03-01T09:46:24;18.75;;;10.73;;
59824;SDS011;45703;50.898;6.054;2023-03-01T09:48:53;19.30;;;10.85;;
59824;SDS011;45703;50.898;6.054;2023-03-01T09:51:40;22.52;;;11.43;;
59824;SDS011;45703;50.898;6.054;2023-03-01T09:54:08;17.90;;;10.73;;
59824;SDS011;45703;50.898;6.054;2023-03-01T10:01:41;21.35;;;11.23;;
59824;SDS011;45703;50.898;6.054;2023-03-01T10:07:14;20.00;;;10.98;;
59824;SDS011;45703;50.898;6.054;2023-03-01T10:09:55;17.63;;;10.15;;
59824;SDS011;45703;50.898;6.054;2023-03-01T10:12:42;18.90;;;10.63;;
59824;SDS011;45703;50.898;6.054;2023-03-01T10:15:13;19.75;;;10.95;;
59824;SDS011;45703;50.898;6.054;2023-03-01T10:17:46;20.55;;;11.25;;
59824;SDS011;45703;50.898;6.054;2023-03-01T10:20:21;16.27;;;9.43;;
59824;SDS011;45703;50.898;6.054;2023-03-01T10:22:47;17.50;;;10.33;;
59824;SDS011;45703;50.898;6.054;2023-03-01T10:25:20;19.38;;;10.52;;
59824;SDS011;45703;50.898;6.054;2023-03-01T10:28:28;18.83;;;11.23;;
59824;SDS011;45703;50.898;6.054;2023-03-01T10:30:54;18.63;;;10.18;;
59824;SDS011;45703;50.898;6.054;2023-03-01T10:33:32;22.48;;;11.02;;
59824;SDS011;45703;50.898;6.054;2023-03-01T10:36:02;20.13;;;11.25;;
59824;SDS011;45703;50.898;6.054;2023-03-01T10:38:30;21.63;;;9.68;;
59824;SDS011;45703;50.898;6.054;2023-03-01T10:41:11;17.90;;;10.30;;
59824;SDS011;45703;50.898;6.054;2023-03-01T10:43:50;18.75;;;10.68;;
59824;SDS011;45703;50.898;6.054;2023-03-01T10:46:31;17.30;;;10.20;;
59824;SDS011;45703;50.898;6.054;2023-03-01T10:49:05;19.73;;;10.43;;
59824;SDS011;45703;50.898;6.054;2023-03-01T10:51:32;20.48;;;10.55;;
59824;SDS011;45703;50.898;6.054;2023-03-01T10:53:58;24.55;;;11.88;;
59824;SDS011;45703;50.898;6.054;2023-03-01T10:56:23;22.15;;;11.07;;
59824;SDS011;45703;50.898;6.054;2023-03-01T10:59:09;18.67;;;11.30;;
59824;SDS011;45703;50.898;6.054;2023-03-01T11:01:49;18.88;;;10.32;;
59824;SDS011;45703;50.898;6.054;2023-03-01T11:04:28;18.70;;;11.25;;
59824;SDS011;45703;50.898;6.054;2023-03-01T11:07:00;20.60;;;11.15;;
59824;SDS011;45703;50.898;6.054;2023-03-01T11:09:30;21.08;;;10.55;;
59824;SDS011;45703;50.898;6.054;2023-03-01T11:12:02;17.02;;;9.00;;
59824;SDS011;45703;50.898;6.054;2023-03-01T11:14:35;17.05;;;9.80;;
59824;SDS011;45703;50.898;6.054;2023-03-01T11:17:11;18.50;;;9.80;;
59824;SDS011;45703;50.898;6.054;2023-03-01T11:19:40;18.33;;;10.35;;
59824;SDS011;45703;50.898;6.054;2023-03-01T11:22:13;17.15;;;9.68;;
59824;SDS011;45703;50.898;6.054;2023-03-01T11:24:46;20.88;;;11.82;;
59824;SDS011;45703;50.898;6.054;2023-03-01T11:27:32;17.50;;;10.40;;
59824;SDS011;45703;50.898;6.054;2023-03-01T11:32:36;17.70;;;9.82;;
59824;SDS011;45703;50.898;6.054;2023-03-01T11:35:24;17.80;;;9.90;;
59824;SDS011;45703;50.898;6.054;2023-03-01T11:40:31;17.83;;;10.18;;
59824;SDS011;45703;50.898;6.054;2023-03-01T11:45:26;20.08;;;10.65;;
59824;SDS011;45703;50.898;6.054;2023-03-01T11:48:06;19.65;;;10.60;;
59824;SDS011;45703;50.898;6.054;2023-03-01T11:50:45;17.33;;;10.20;;
59824;SDS011;45703;50.898;6.054;2023-03-01T11:56:27;19.60;;;10.48;;
59824;SDS011;45703;50.898;6.054;2023-03-01T12:01:51;19.23;;;10.32;;
59824;SDS011;45703;50.898;6.054;2023-03-01T12:07:27;19.73;;;11.05;;
59824;SDS011;45703;50.898;6.054;2023-03-01T12:26:36;21.58;;;10.88;;
59824;SDS011;45703;50.898;6.054;2023-03-01T12:32:38;16.85;;;9.35;;
59824;SDS011;45703;50.898;6.054;2023-03-01T12:38:01;16.92;;;10.15;;
59824;SDS011;45703;50.898;6.054;2023-03-01T12:49:25;21.15;;;11.70;;
59824;SDS011;45703;50.898;6.054;2023-03-01T12:51:58;19.67;;;10.73;;
59824;SDS011;45703;50.898;6.054;2023-03-01T12:54:30;18.08;;;10.82;;
59824;SDS011;45703;50.898;6.054;2023-03-01T12:59:35;19.95;;;10.68;;
59824;SDS011;45703;50.898;6.054;2023-03-01T13:02:27;21.05;;;11.48;;
59824;SDS011;45703;50.898;6.054;2023-03-01T13:05:04;18.00;;;10.55;;
59824;SDS011;45703;50.898;6.054;2023-03-01T13:10:33;17.58;;;10.90;;
59824;SDS011;45703;50.898;6.054;2023-03-01T13:13:14;16.63;;;10.10;;
59824;SDS011;45703;50.898;6.054;2023-03-01T13:25:59;16.70;;;9.60;;
59824;SDS011;45703;50.898;6.054;2023-03-01T13:28:56;18.88;;;10.75;;
59824;SDS011;45703;50.898;6.054;2023-03-01T13:41:48;17.58;;;9.85;;
59824;SDS011;45703;50.898;6.054;2023-03-01T13:44:34;17.67;;;9.98;;
59824;SDS011;45703;50.898;6.054;2023-03-01T13:49:48;17.65;;;9.98;;
59824;SDS011;45703;50.898;6.054;2023-03-01T13:55:05;15.68;;;8.85;;
59824;SDS011;45703;50.898;6.054;2023-03-01T13:57:55;17.77;;;9.48;;
59824;SDS011;45703;50.898;6.054;2023-03-01T14:00:37;16.38;;;8.43;;
59824;SDS011;45703;50.898;6.054;2023-03-01T14:05:38;17.95;;;9.57;;
59824;SDS011;45703;50.898;6.054;2023-03-01T14:08:05;16.77;;;10.48;;
59824;SDS011;45703;50.898;6.054;2023-03-01T14:10:49;17.80;;;9.95;;
59824;SDS011;45703;50.898;6.054;2023-03-01T14:16:19;15.57;;;9.07;;
59824;SDS011;45703;50.898;6.054;2023-03-01T14:21:49;17.95;;;9.77;;
59824;SDS011;45703;50.898;6.054;2023-03-01T14:24:25;15.93;;;9.13;;
59824;SDS011;45703;50.898;6.054;2023-03-01T14:26:52;16.60;;;8.75;;
59824;SDS011;45703;50.898;6.054;2023-03-01T14:32:20;16.48;;;9.10;;
59824;SDS011;45703;50.898;6.054;2023-03-01T14:34:48;14.80;;;8.02;;
59824;SDS011;45703;50.898;6.054;2023-03-01T14:37:28;14.75;;;7.93;;
59824;SDS011;45703;50.898;6.054;2023-03-01T14:39:54;15.70;;;8.32;;
59824;SDS011;45703;50.898;6.054;2023-03-01T14:42:22;13.57;;;7.88;;
59824;SDS011;45703;50.898;6.054;2023-03-01T14:44:51;14.43;;;8.10;;
59824;SDS011;45703;50.898;6.054;2023-03-01T14:47:29;15.48;;;7.55;;
59824;SDS011;45703;50.898;6.054;2023-03-01T14:50:00;13.98;;;7.25;;
59824;SDS011;45703;50.898;6.054;2023-03-01T14:52:33;12.82;;;7.20;;
59824;SDS011;45703;50.898;6.054;2023-03-01T14:55:02;14.43;;;7.00;;
59824;SDS011;45703;50.898;6.054;2023-03-01T14:57:30;13.38;;;7.00;;
59824;SDS011;45703;50.898;6.054;2023-03-01T15:00:00;11.57;;;7.18;;
59824;SDS011;45703;50.898;6.054;2023-03-01T15:02:29;14.18;;;7.30;;
59824;SDS011;45703;50.898;6.054;2023-03-01T15:04:56;11.23;;;6.60;;
59824;SDS011;45703;50.898;6.054;2023-03-01T15:07:26;11.93;;;6.38;;
59824;SDS011;45703;50.898;6.054;2023-03-01T15:09:56;13.30;;;6.45;;
59824;SDS011;45703;50.898;6.054;2023-03-01T15:12:36;12.82;;;6.38;;
59824;SDS011;45703;50.898;6.054;2023-03-01T15:17:50;11.00;;;5.90;;
59824;SDS011;45703;50.898;6.054;2023-03-01T15:20:20;11.35;;;6.10;;
59824;SDS011;45703;50.898;6.054;2023-03-01T15:22:50;14.15;;;6.53;;
59824;SDS011;45703;50.898;6.054;2023-03-01T15:25:27;12.68;;;6.30;;
59824;SDS011;45703;50.898;6.054;2023-03-01T15:27:54;12.85;;;6.63;;
59824;SDS011;45703;50.898;6.054;2023-03-01T15:30:26;12.55;;;6.57;;
59824;SDS011;45703;50.898;6.054;2023-03-01T15:35:49;12.07;;;6.30;;
59824;SDS011;45703;50.898;6.054;2023-03-01T15:41:26;11.48;;;5.55;;
59824;SDS011;45703;50.898;6.054;2023-03-01T15:43:56;12.98;;;5.97;;
59824;SDS011;45703;50.898;6.054;2023-03-01T15:46:30;11.27;;;6.40;;
59824;SDS011;45703;50.898;6.054;2023-03-01T15:48:58;11.73;;;6.22;;
59824;SDS011;45703;50.898;6.054;2023-03-01T15:51:31;12.25;;;5.88;;
59824;SDS011;45703;50.898;6.054;2023-03-01T15:54:05;11.70;;;6.22;;
59824;SDS011;45703;50.898;6.054;2023-03-01T15:56:39;12.88;;;6.78;;
59824;SDS011;45703;50.898;6.054;2023-03-01T15:59:04;11.38;;;6.40;;
59824;SDS011;45703;50.898;6.054;2023-03-01T16:01:31;11.38;;;5.72;;
59824;SDS011;45703;50.898;6.054;2023-03-01T16:03:59;13.13;;;6.38;;
59824;SDS011;45703;50.898;6.054;2023-03-01T16:06:24;12.65;;;7.03;;
59824;SDS011;45703;50.898;6.054;2023-03-01T16:08:50;13.80;;;6.38;;
59824;SDS011;45703;50.898;6.054;2023-03-01T16:11:16;10.52;;;5.95;;
59824;SDS011;45703;50.898;6.054;2023-03-01T16:13:43;10.23;;;5.70;;
59824;SDS011;45703;50.898;6.054;2023-03-01T16:16:10;11.98;;;6.25;;
59824;SDS011;45703;50.898;6.054;2023-03-01T16:18:39;12.65;;;6.95;;
59824;SDS011;45703;50.898;6.054;2023-03-01T16:21:05;14.05;;;6.72;;
59824;SDS011;45703;50.898;6.054;2023-03-01T16:23:31;11.48;;;6.45;;
59824;SDS011;45703;50.898;6.054;2023-03-01T16:25:59;12.93;;;6.53;;
59824;SDS011;45703;50.898;6.054;2023-03-01T16:28:25;11.30;;;5.97;;
59824;SDS011;45703;50.898;6.054;2023-03-01T16:30:51;14.02;;;6.03;;
59824;SDS011;45703;50.898;6.054;2023-03-01T16:33:17;12.02;;;6.05;;
59824;SDS011;45703;50.898;6.054;2023-03-01T16:35:42;11.77;;;6.30;;
59824;SDS011;45703;50.898;6.054;2023-03-01T16:38:09;12.75;;;6.50;;
59824;SDS011;45703;50.898;6.054;2023-03-01T16:40:34;11.25;;;6.78;;
59824;SDS011;45703;50.898;6.054;2023-03-01T16:43:00;12.00;;;6.35;;
59824;SDS011;45703;50.898;6.054;2023-03-01T16:45:34;13.73;;;6.57;;
59824;SDS011;45703;50.898;6.054;2023-03-01T16:48:00;11.93;;;6.05;;
59824;SDS011;45703;50.898;6.054;2023-03-01T16:50:26;13.40;;;7.05;;